Station: Minnipa Rs

  Atmospheric Gas Attenuation - ITU Rec 676-11   --------------- db/100km ---------------
Date Time Temp RH % AH g/m3 Dew Point Wind Direction Speed kph Gust kph Barometer mB Rainfall Since 9am 24GHz 47GHz 76GHz 122GHz 134GHz 241GHz
15 00:40 11.3 93 9.49 10.2 7 9 1020.4 1.2 21.6 28.4 45.2 118.7 114.7 395.0
15 00:30 11.4 93 9.55 10.3 7 9 1020.5 1.2 21.7 28.5 45.4 119.2 115.4 397.5
15 00:20 11.2 93 9.43 10.1 7 7 1020.6 1.2 21.5 28.4 45.0 118.2 114.0 392.6
15 00:10 11 93 9.31 9.9 9 9 1020.4 1.2 21.2 28.2 44.6 117.1 112.6 387.6
15 00:00 10.9 92 9.15 9.7 9 11 1020.5 1.2 20.9 28.0 44.0 115.4 110.5 380.2
14 23:50 10.9 92 9.15 9.7 6 7 1020.7 1.2 20.9 28.0 44.0 115.4 110.5 380.3
14 23:40 10.8 92 9.1 9.6 7 9 1020.6 1.2 20.8 27.9 43.8 115.0 109.9 378.3
14 23:30 10.8 92 9.1 9.6 7 9 1020.6 1.2 20.8 27.9 43.8 115.0 109.9 378.3
14 23:20 10.8 92 9.1 9.6 9 9 1020.6 1.2 20.8 27.9 43.8 115.0 109.9 378.3
14 23:10 11 92 9.21 9.8 9 9 1020.5 1 21.0 28.0 44.2 115.9 111.2 382.7
14 23:00 11.1 92 9.27 9.9 7 9 1020.5 1 21.2 28.1 44.4 116.5 111.9 385.1
14 22:50 11.3 92 9.39 10 7 9 1020.5 1 21.4 28.3 44.8 117.6 113.3 390.1
14 22:40 11.2 92 9.33 9.9 7 9 1020.3 1 21.3 28.2 44.5 117.0 112.5 387.5
14 22:30 11.3 92 9.39 10 7 9 1020.2 1 21.4 28.3 44.7 117.5 113.2 390.0
14 22:20 11.2 91 9.23 9.8 7 7 1020.2 1 21.1 28.0 44.1 115.8 111.1 382.6
14 22:10 11.2 91 9.23 9.8 7 7 1020 1 21.1 28.0 44.1 115.8 111.1 382.5
14 22:00 11.4 91 9.34 10 7 9 1020 1 21.3 28.1 44.5 116.8 112.4 386.9
14 21:50 11.8 91 9.58 10.4 9 11 1020 1 21.8 28.4 45.3 118.9 115.2 396.8
14 21:40 11.8 91 9.58 10.4 6 7 1020 1 21.8 28.4 45.3 118.9 115.2 396.8
14 21:30 12 90 9.59 10.4 7 9 1019.9 1 21.8 28.4 45.2 118.7 115.0 396.2
14 21:20 12.2 90 9.71 10.6 7 9 1019.8 1 22.0 28.5 45.6 119.8 116.4 401.1
14 21:10 12.6 91 10.07 11.2 9 11 1019.8 1 22.8 29.0 46.9 123.3 120.8 416.8
14 21:00 12.8 91 10.19 11.4 9 15 1019.7 1 23.0 29.1 47.3 124.3 122.2 421.6
14 20:50 13 91 10.32 11.6 11 13 1019.7 1 23.3 29.3 47.7 125.5 123.8 427.0
14 20:40 13 91 10.32 11.6 13 15 1019.6 1 23.3 29.3 47.7 125.5 123.7 427.0
14 20:30 13 91 10.32 11.6 13 22 1019.4 1 23.3 29.3 47.7 125.5 123.7 426.9
14 20:20 12.9 91 10.26 11.5 11 13 1019.7 0.8 23.2 29.2 47.5 125.0 123.1 424.5
14 20:10 12.8 91 10.19 11.4 11 13 1019.5 0.8 23.0 29.1 47.3 124.3 122.2 421.5
14 20:00 12.7 91 10.13 11.3 13 17 1019.3 0.8 22.9 29.0 47.1 123.8 121.5 419.0
14 19:50 12.6 91 10.07 11.2 11 13 1019.4 0.8 22.8 29.0 46.9 123.2 120.8 416.6
14 19:40 12.5 90 9.9 10.9 13 15 1019.3 0.8 22.4 28.7 46.2 121.4 118.5 408.7
14 19:30 12.6 90 9.96 11 13 17 1018.9 0.8 22.6 28.8 46.4 121.9 119.2 411.0
14 19:20 12.8 89 9.97 11 15 17 1018.9 0.8 22.6 28.7 46.3 121.7 119.0 410.5
14 19:10 12.8 88 9.86 10.9 11 17 1018.8 0.8 22.3 28.5 45.8 120.4 117.5 405.0
14 19:00 12.9 88 9.92 11 11 17 1018.7 0.8 22.5 28.6 46.0 121.0 118.2 407.4
14 18:50 13 87 9.87 10.9 13 15 1018.7 0.8 22.3 28.5 45.7 120.2 117.3 404.4
14 18:40 13.1 86 9.81 10.8 13 17 1018.7 0.8 22.2 28.3 45.4 119.4 116.3 401.0
14 18:30 13.3 86 9.94 11 15 20 1018.5 0.8 22.5 28.5 45.9 120.5 117.8 406.2
14 18:20 13.4 85 9.88 10.9 15 22 1018.5 0.8 22.3 28.3 45.5 119.7 116.8 402.8
14 18:10 13.4 86 10 11.1 15 17 1018.3 0.8 22.6 28.5 46.0 121.0 118.5 408.6
14 18:00 13.8 86 10.25 11.5 20 30 1018.1 0.8 23.1 28.8 46.9 123.2 121.3 418.6
14 17:50 14.6 79 9.89 11 15 17 1018 0.6 22.3 28.0 44.9 117.9 115.1 396.9
14 17:40 15.1 71 9.16 9.9 19 20 1017.9 0.6 20.7 26.6 41.6 109.2 104.5 360.0
14 17:30 15.2 69 8.96 9.6 20 28 1017.8 0.6 20.3 26.2 40.7 106.9 101.7 350.3
14 17:20 15.5 67 8.86 9.4 24 28 1017.8 0.6 20.1 26.0 40.2 105.4 100.0 344.3
14 17:10 15.7 67 8.96 9.6 19 24 1017.6 0.6 20.3 26.1 40.5 106.2 101.1 348.0
14 17:00 16 65 8.86 9.4 24 35 1017.4 0.6 20.0 25.8 39.9 104.7 99.3 342.1
14 16:50 16 67 9.13 9.9 26 30 1017.3 0.6 20.6 26.3 41.0 107.6 102.9 354.3
14 16:40 16.1 67 9.18 10 26 30 1017.2 0.6 20.7 26.3 41.1 108.0 103.4 356.2
14 16:30 16 67 9.13 9.9 24 33 1017.2 0.6 20.6 26.3 41.0 107.6 102.9 354.3
14 16:20 16.5 65 9.13 9.9 30 35 1017 0.6 20.6 26.1 40.7 106.9 102.2 352.0
14 16:10 16.6 68 9.61 10.7 24 28 1017 0.6 21.6 26.8 42.6 111.8 108.3 373.6
14 16:00 16.4 69 9.63 10.7 24 37 1016.9 0.6 21.7 26.9 42.8 112.3 108.9 375.4
14 15:50 15.9 69 9.34 10.2 26 32 1017 0.6 21.1 26.6 41.9 109.9 105.7 364.4
14 15:40 16.5 65 9.13 9.9 28 32 1016.8 0.6 20.6 26.1 40.7 106.8 102.2 352.0
14 15:30 17.5 63 9.39 10.4 28 39 1016.7 0.6 21.1 26.2 41.2 108.2 104.2 359.2
14 15:20 17.2 63 9.23 10.1 30 35 1016.6 0.6 20.8 26.0 40.7 106.9 102.5 353.3
14 15:10 17.1 64 9.32 10.2 32 35 1016.5 0.6 21.0 26.2 41.1 108.0 103.8 357.8
14 15:00 16.9 66 9.49 10.5 28 37 1016.5 0.6 21.3 26.5 41.9 110.1 106.3 366.5
14 14:50 17.6 64 9.6 10.7 32 35 1016.3 0.6 21.5 26.5 42.0 110.2 106.8 368.2
14 14:40 17.6 64 9.6 10.7 28 35 1016.2 0.6 21.5 26.5 42.0 110.2 106.7 368.2
14 14:30 17.7 63 9.5 10.6 32 39 1016.2 0.6 21.3 26.3 41.5 109.0 105.3 363.2
14 14:20 17.9 60 9.16 10 32 35 1016.3 0.6 20.6 25.7 40.1 105.2 100.7 347.0
14 14:10 17.6 63 9.45 10.5 32 39 1016.3 0.6 21.2 26.3 41.4 108.7 104.8 361.4
14 14:00 17.5 60 8.94 9.7 33 44 1016.3 0.6 20.1 25.5 39.4 103.5 98.4 338.9
14 13:50 17.3 66 9.72 10.9 20 26 1016.4 0.6 21.8 26.8 42.6 112.0 108.7 375.1
14 13:40 16.4 68 9.49 10.5 28 37 1016.4 0.6 21.4 26.7 42.2 110.8 107.0 368.8
14 13:30 17.3 71 10.46 12 32 44 1016.3 0.6 23.4 28.0 45.6 119.9 118.6 409.5
14 13:20 17.6 69 10.35 11.8 32 39 1016.3 0.6 23.1 27.7 45.0 118.3 116.6 402.8
14 13:10 17.6 69 10.35 11.8 33 43 1016.3 0.6 23.1 27.7 45.0 118.3 116.6 402.8
14 13:00 17.2 71 10.4 11.9 30 43 1016.5 0.6 23.2 27.9 45.4 119.4 117.9 407.3
14 12:50 17.4 75 11.11 12.9 30 37 1016.7 0.6 24.7 29.1 48.2 127.0 127.3 440.0
14 12:40 17.2 75 10.98 12.7 28 33 1016.8 0.6 24.5 28.9 47.8 125.9 125.9 434.9
14 12:30 17.4 81 12 14.1 24 33 1016.9 0.6 26.6 30.6 52.0 137.1 139.7 483.4
14 12:20 16 82 11.17 12.9 20 28 1017.1 0.6 25.0 29.6 49.4 130.0 130.5 451.1
14 12:10 15.6 85 11.3 13.1 26 30 1017.3 0.6 25.3 30.0 50.2 132.2 133.1 459.9
14 12:00 15.3 86 11.23 13 28 35 1017.3 0.6 25.1 30.0 50.1 131.9 132.6 458.2
14 11:50 15.1 88 11.35 13.1 24 30 1017.5 0.6 25.4 30.3 50.8 133.7 134.7 465.5
14 11:40 14.4 87 10.75 12.3 22 30 1017.7 0.6 24.2 29.5 48.6 128.0 127.4 439.8
14 11:30 14.5 87 10.82 12.4 24 37 1017.7 0.6 24.3 29.6 48.9 128.6 128.2 442.7
14 11:20 15.3 86 11.23 13 20 24 1017.6 0 25.1 30.0 50.1 132.0 132.6 458.3
14 11:10 14.6 85 10.64 12.1 22 26 1017.6 0 23.9 29.2 48.0 126.4 125.5 433.2
14 11:00 15.4 80 10.51 12 26 39 1017.5 0 23.6 28.7 47.0 123.6 122.3 422.4
14 10:50 15.3 80 10.45 11.9 24 28 1017.6 0 23.5 28.7 46.8 123.1 121.7 420.1
14 10:40 15.3 79 10.32 11.7 26 30 1017.6 0 23.2 28.4 46.2 121.6 119.9 413.8
14 10:30 15.2 81 10.51 12 24 32 1017.6 0 23.6 28.8 47.1 123.9 122.7 423.5
14 10:20 14.9 84 10.71 12.2 24 28 1017.7 0 24.0 29.2 48.1 126.7 126.0 435.0
14 10:10 14.7 85 10.7 12.2 26 30 1017.7 0 24.0 29.3 48.2 126.9 126.2 435.6
14 10:00 14.2 86 10.5 11.9 24 32 1017.7 0 23.6 29.1 47.7 125.4 124.2 428.6
14 09:50 14 89 10.74 12.2 22 28 1017.7 0 24.2 29.6 48.8 128.5 127.9 441.6
14 09:40 13.8 89 10.6 12 24 28 1017.7 0 23.9 29.4 48.4 127.2 126.2 435.8
14 09:30 13.6 89 10.47 11.8 22 24 1017.6 0 23.6 29.3 47.9 126.0 124.7 430.4
14 09:20 13.4 89 10.35 11.6 22 26 1017.5 0 23.4 29.1 47.5 125.0 123.3 425.5
14 09:10 13.4 90 10.46 11.8 22 28 1017.4 0 23.6 29.3 48.0 126.2 124.9 431.0
14 09:00 13.2 91 10.45 11.8 22 32 1017.2 0 23.6 29.3 48.1 126.4 125.0 431.5
14 08:50 13.1 92 10.5 11.8 24 28 1017.1 1.8 23.7 29.5 48.3 127.1 125.9 434.5
14 08:40 13.1 92 10.5 11.8 19 22 1016.9 1.8 23.7 29.5 48.3 127.1 125.9 434.5
14 08:30 13.1 92 10.5 11.8 22 30 1016.7 1.8 23.7 29.4 48.3 127.1 125.9 434.4
14 08:20 13 92 10.43 11.7 17 22 1016.7 1.8 23.6 29.4 48.1 126.4 125.0 431.5
14 08:10 12.9 92 10.37 11.6 20 26 1016.7 1.8 23.4 29.3 47.9 125.9 124.3 429.0

Last Refresh: 15-Jun-2024 00:49:51

Bureau of Meteorology